sensor_id;sensor_type;location;lat;lon;timestamp;P1;durP1;ratioP1;P2;durP2;ratioP2
13345;SDS011;6742;48.036;15.780;2024-01-30T00:01:38;13.17;;;8.20;;
13345;SDS011;6742;48.036;15.780;2024-01-30T00:04:05;13.40;;;8.53;;
13345;SDS011;6742;48.036;15.780;2024-01-30T00:06:32;14.17;;;7.20;;
13345;SDS011;6742;48.036;15.780;2024-01-30T00:09:00;12.87;;;7.63;;
13345;SDS011;6742;48.036;15.780;2024-01-30T00:11:27;15.27;;;8.50;;
13345;SDS011;6742;48.036;15.780;2024-01-30T00:13:54;13.37;;;10.07;;
13345;SDS011;6742;48.036;15.780;2024-01-30T00:16:23;13.90;;;9.70;;
13345;SDS011;6742;48.036;15.780;2024-01-30T00:18:50;12.67;;;9.03;;
13345;SDS011;6742;48.036;15.780;2024-01-30T00:21:17;10.00;;;7.20;;
13345;SDS011;6742;48.036;15.780;2024-01-30T00:23:44;10.60;;;7.27;;
13345;SDS011;6742;48.036;15.780;2024-01-30T00:26:12;11.47;;;7.13;;
13345;SDS011;6742;48.036;15.780;2024-01-30T00:28:40;9.60;;;6.83;;
13345;SDS011;6742;48.036;15.780;2024-01-30T00:31:07;9.67;;;7.03;;
13345;SDS011;6742;48.036;15.780;2024-01-30T00:33:37;9.57;;;6.70;;
13345;SDS011;6742;48.036;15.780;2024-01-30T00:36:04;11.20;;;7.00;;
13345;SDS011;6742;48.036;15.780;2024-01-30T00:38:31;10.00;;;6.47;;
13345;SDS011;6742;48.036;15.780;2024-01-30T00:40:58;11.30;;;6.70;;
13345;SDS011;6742;48.036;15.780;2024-01-30T00:43:28;10.47;;;6.87;;
13345;SDS011;6742;48.036;15.780;2024-01-30T00:45:56;8.67;;;6.53;;
13345;SDS011;6742;48.036;15.780;2024-01-30T00:48:23;9.13;;;6.97;;
13345;SDS011;6742;48.036;15.780;2024-01-30T00:50:50;9.07;;;6.60;;
13345;SDS011;6742;48.036;15.780;2024-01-30T00:53:17;11.43;;;6.13;;
13345;SDS011;6742;48.036;15.780;2024-01-30T00:55:44;8.73;;;6.40;;
13345;SDS011;6742;48.036;15.780;2024-01-30T00:58:11;9.70;;;6.53;;
13345;SDS011;6742;48.036;15.780;2024-01-30T01:00:39;8.77;;;6.50;;
13345;SDS011;6742;48.036;15.780;2024-01-30T01:03:06;8.63;;;6.20;;
13345;SDS011;6742;48.036;15.780;2024-01-30T01:05:34;7.83;;;6.17;;
13345;SDS011;6742;48.036;15.780;2024-01-30T01:08:00;6.80;;;5.90;;
13345;SDS011;6742;48.036;15.780;2024-01-30T01:10:27;8.10;;;6.10;;
13345;SDS011;6742;48.036;15.780;2024-01-30T01:12:54;10.33;;;6.30;;
13345;SDS011;6742;48.036;15.780;2024-01-30T01:15:21;9.70;;;6.57;;
13345;SDS011;6742;48.036;15.780;2024-01-30T01:17:50;9.37;;;6.07;;
13345;SDS011;6742;48.036;15.780;2024-01-30T01:20:17;9.40;;;6.50;;
13345;SDS011;6742;48.036;15.780;2024-01-30T01:22:43;6.90;;;5.70;;
13345;SDS011;6742;48.036;15.780;2024-01-30T01:25:10;8.77;;;6.40;;
13345;SDS011;6742;48.036;15.780;2024-01-30T01:27:37;8.57;;;6.37;;
13345;SDS011;6742;48.036;15.780;2024-01-30T01:30:07;9.50;;;6.50;;
13345;SDS011;6742;48.036;15.780;2024-01-30T01:32:35;8.17;;;5.93;;
13345;SDS011;6742;48.036;15.780;2024-01-30T01:35:05;8.17;;;6.10;;
13345;SDS011;6742;48.036;15.780;2024-01-30T01:37:32;8.17;;;5.90;;
13345;SDS011;6742;48.036;15.780;2024-01-30T01:39:59;6.73;;;5.60;;
13345;SDS011;6742;48.036;15.780;2024-01-30T01:42:26;8.23;;;5.50;;
13345;SDS011;6742;48.036;15.780;2024-01-30T01:44:53;7.93;;;5.67;;
13345;SDS011;6742;48.036;15.780;2024-01-30T01:47:20;7.77;;;6.20;;
13345;SDS011;6742;48.036;15.780;2024-01-30T01:49:47;7.37;;;5.33;;
13345;SDS011;6742;48.036;15.780;2024-01-30T01:52:15;10.97;;;6.37;;
13345;SDS011;6742;48.036;15.780;2024-01-30T01:54:43;8.50;;;6.17;;
13345;SDS011;6742;48.036;15.780;2024-01-30T01:57:11;8.23;;;6.17;;
13345;SDS011;6742;48.036;15.780;2024-01-30T01:59:38;10.73;;;6.90;;
13345;SDS011;6742;48.036;15.780;2024-01-30T02:02:05;8.03;;;6.30;;
13345;SDS011;6742;48.036;15.780;2024-01-30T02:04:35;9.00;;;6.03;;
13345;SDS011;6742;48.036;15.780;2024-01-30T02:07:02;9.57;;;6.20;;
13345;SDS011;6742;48.036;15.780;2024-01-30T02:09:31;8.13;;;5.83;;
13345;SDS011;6742;48.036;15.780;2024-01-30T02:11:58;7.47;;;5.63;;
13345;SDS011;6742;48.036;15.780;2024-01-30T02:14:25;8.50;;;5.90;;
13345;SDS011;6742;48.036;15.780;2024-01-30T02:16:52;6.60;;;5.70;;
13345;SDS011;6742;48.036;15.780;2024-01-30T02:19:19;9.13;;;6.13;;
13345;SDS011;6742;48.036;15.780;2024-01-30T02:21:47;10.40;;;6.07;;
13345;SDS011;6742;48.036;15.780;2024-01-30T02:24:15;8.17;;;6.07;;
13345;SDS011;6742;48.036;15.780;2024-01-30T02:26:41;9.60;;;6.17;;
13345;SDS011;6742;48.036;15.780;2024-01-30T02:29:08;9.20;;;6.13;;
13345;SDS011;6742;48.036;15.780;2024-01-30T02:31:35;7.60;;;5.90;;
13345;SDS011;6742;48.036;15.780;2024-01-30T02:34:02;7.50;;;5.77;;
13345;SDS011;6742;48.036;15.780;2024-01-30T02:36:29;6.67;;;4.73;;
13345;SDS011;6742;48.036;15.780;2024-01-30T02:38:58;8.10;;;5.07;;
13345;SDS011;6742;48.036;15.780;2024-01-30T02:41:24;7.30;;;5.07;;
13345;SDS011;6742;48.036;15.780;2024-01-30T02:43:51;7.63;;;5.37;;
13345;SDS011;6742;48.036;15.780;2024-01-30T02:46:18;7.53;;;5.43;;
13345;SDS011;6742;48.036;15.780;2024-01-30T02:48:45;7.30;;;5.27;;
13345;SDS011;6742;48.036;15.780;2024-01-30T02:51:12;6.73;;;5.50;;
13345;SDS011;6742;48.036;15.780;2024-01-30T02:53:39;8.07;;;5.50;;
13345;SDS011;6742;48.036;15.780;2024-01-30T02:56:07;7.37;;;5.57;;
13345;SDS011;6742;48.036;15.780;2024-01-30T02:58:35;7.77;;;5.70;;
13345;SDS011;6742;48.036;15.780;2024-01-30T03:01:02;9.73;;;5.60;;
13345;SDS011;6742;48.036;15.780;2024-01-30T03:03:29;7.77;;;5.27;;
13345;SDS011;6742;48.036;15.780;2024-01-30T03:05:56;6.13;;;4.73;;
13345;SDS011;6742;48.036;15.780;2024-01-30T03:08:23;6.90;;;4.43;;
13345;SDS011;6742;48.036;15.780;2024-01-30T03:10:49;7.53;;;5.17;;
13345;SDS011;6742;48.036;15.780;2024-01-30T03:13:18;9.83;;;5.07;;
13345;SDS011;6742;48.036;15.780;2024-01-30T03:15:45;8.17;;;5.97;;
13345;SDS011;6742;48.036;15.780;2024-01-30T03:18:12;6.80;;;5.40;;
13345;SDS011;6742;48.036;15.780;2024-01-30T03:20:39;9.70;;;5.47;;
13345;SDS011;6742;48.036;15.780;2024-01-30T03:23:06;8.57;;;4.90;;
13345;SDS011;6742;48.036;15.780;2024-01-30T03:25:33;8.37;;;4.90;;
13345;SDS011;6742;48.036;15.780;2024-01-30T03:27:59;9.03;;;5.10;;
13345;SDS011;6742;48.036;15.780;2024-01-30T03:30:28;6.03;;;4.50;;
13345;SDS011;6742;48.036;15.780;2024-01-30T03:32:55;9.73;;;4.63;;
13345;SDS011;6742;48.036;15.780;2024-01-30T03:35:22;7.60;;;5.20;;
13345;SDS011;6742;48.036;15.780;2024-01-30T03:37:49;7.47;;;5.50;;
13345;SDS011;6742;48.036;15.780;2024-01-30T03:40:16;7.30;;;5.23;;
13345;SDS011;6742;48.036;15.780;2024-01-30T03:42:43;7.73;;;5.30;;
13345;SDS011;6742;48.036;15.780;2024-01-30T03:45:10;6.83;;;5.10;;
13345;SDS011;6742;48.036;15.780;2024-01-30T03:47:38;6.73;;;4.67;;
13345;SDS011;6742;48.036;15.780;2024-01-30T03:50:05;7.07;;;4.73;;
13345;SDS011;6742;48.036;15.780;2024-01-30T03:52:33;6.67;;;4.37;;
13345;SDS011;6742;48.036;15.780;2024-01-30T03:55:00;5.83;;;4.60;;
13345;SDS011;6742;48.036;15.780;2024-01-30T03:57:27;7.93;;;5.30;;
13345;SDS011;6742;48.036;15.780;2024-01-30T03:59:54;7.70;;;5.60;;
13345;SDS011;6742;48.036;15.780;2024-01-30T04:02:21;8.17;;;5.60;;
13345;SDS011;6742;48.036;15.780;2024-01-30T04:04:49;8.90;;;5.53;;
13345;SDS011;6742;48.036;15.780;2024-01-30T04:07:16;6.60;;;5.03;;
13345;SDS011;6742;48.036;15.780;2024-01-30T04:09:43;6.50;;;5.07;;
13345;SDS011;6742;48.036;15.780;2024-01-30T04:12:10;8.40;;;5.10;;
13345;SDS011;6742;48.036;15.780;2024-01-30T04:14:37;9.83;;;5.63;;
13345;SDS011;6742;48.036;15.780;2024-01-30T04:17:05;9.90;;;6.33;;
13345;SDS011;6742;48.036;15.780;2024-01-30T04:19:32;10.53;;;6.37;;
13345;SDS011;6742;48.036;15.780;2024-01-30T04:22:00;11.37;;;6.57;;
13345;SDS011;6742;48.036;15.780;2024-01-30T04:24:27;9.00;;;5.60;;
13345;SDS011;6742;48.036;15.780;2024-01-30T04:26:54;10.67;;;5.23;;
13345;SDS011;6742;48.036;15.780;2024-01-30T04:29:21;6.80;;;5.20;;
13345;SDS011;6742;48.036;15.780;2024-01-30T04:31:48;9.20;;;5.97;;
13345;SDS011;6742;48.036;15.780;2024-01-30T04:34:15;11.23;;;6.20;;
13345;SDS011;6742;48.036;15.780;2024-01-30T04:36:43;9.80;;;5.50;;
13345;SDS011;6742;48.036;15.780;2024-01-30T04:39:12;7.37;;;5.53;;
13345;SDS011;6742;48.036;15.780;2024-01-30T04:41:39;7.40;;;5.43;;
13345;SDS011;6742;48.036;15.780;2024-01-30T04:44:06;8.57;;;5.50;;
13345;SDS011;6742;48.036;15.780;2024-01-30T04:46:33;8.60;;;5.50;;
13345;SDS011;6742;48.036;15.780;2024-01-30T04:49:00;9.17;;;5.90;;
13345;SDS011;6742;48.036;15.780;2024-01-30T04:51:28;9.60;;;5.53;;
13345;SDS011;6742;48.036;15.780;2024-01-30T04:53:55;11.57;;;5.70;;
13345;SDS011;6742;48.036;15.780;2024-01-30T04:56:24;8.27;;;5.70;;
13345;SDS011;6742;48.036;15.780;2024-01-30T04:58:50;11.90;;;5.77;;
13345;SDS011;6742;48.036;15.780;2024-01-30T05:01:17;9.90;;;6.20;;
13345;SDS011;6742;48.036;15.780;2024-01-30T05:03:44;8.83;;;5.40;;
13345;SDS011;6742;48.036;15.780;2024-01-30T05:06:11;8.93;;;5.37;;
13345;SDS011;6742;48.036;15.780;2024-01-30T05:08:38;7.97;;;5.23;;
13345;SDS011;6742;48.036;15.780;2024-01-30T05:11:05;8.47;;;5.20;;
13345;SDS011;6742;48.036;15.780;2024-01-30T05:13:34;7.80;;;5.00;;
13345;SDS011;6742;48.036;15.780;2024-01-30T05:16:01;7.67;;;5.17;;
13345;SDS011;6742;48.036;15.780;2024-01-30T05:18:29;8.10;;;5.40;;
13345;SDS011;6742;48.036;15.780;2024-01-30T05:20:56;8.37;;;5.33;;
13345;SDS011;6742;48.036;15.780;2024-01-30T05:23:23;9.70;;;5.57;;
13345;SDS011;6742;48.036;15.780;2024-01-30T05:25:50;10.23;;;5.93;;
13345;SDS011;6742;48.036;15.780;2024-01-30T05:28:17;12.93;;;7.37;;
13345;SDS011;6742;48.036;15.780;2024-01-30T05:30:46;14.27;;;7.70;;
13345;SDS011;6742;48.036;15.780;2024-01-30T05:33:12;16.97;;;8.10;;
13345;SDS011;6742;48.036;15.780;2024-01-30T05:35:39;14.00;;;7.03;;
13345;SDS011;6742;48.036;15.780;2024-01-30T05:38:06;15.70;;;10.00;;
13345;SDS011;6742;48.036;15.780;2024-01-30T05:40:33;17.93;;;11.93;;
13345;SDS011;6742;48.036;15.780;2024-01-30T05:43:00;12.67;;;8.13;;
13345;SDS011;6742;48.036;15.780;2024-01-30T05:45:27;14.63;;;8.17;;
13345;SDS011;6742;48.036;15.780;2024-01-30T05:47:56;10.20;;;7.13;;
13345;SDS011;6742;48.036;15.780;2024-01-30T05:50:23;12.10;;;7.77;;
13345;SDS011;6742;48.036;15.780;2024-01-30T05:52:51;11.47;;;7.23;;
13345;SDS011;6742;48.036;15.780;2024-01-30T05:55:18;11.00;;;6.43;;
13345;SDS011;6742;48.036;15.780;2024-01-30T05:57:45;12.63;;;6.87;;
13345;SDS011;6742;48.036;15.780;2024-01-30T06:00:12;9.87;;;5.90;;
13345;SDS011;6742;48.036;15.780;2024-01-30T06:02:40;10.73;;;6.43;;
13345;SDS011;6742;48.036;15.780;2024-01-30T06:05:08;8.80;;;6.50;;
13345;SDS011;6742;48.036;15.780;2024-01-30T06:07:37;8.93;;;5.70;;
13345;SDS011;6742;48.036;15.780;2024-01-30T06:10:05;10.97;;;6.00;;
13345;SDS011;6742;48.036;15.780;2024-01-30T06:12:33;8.70;;;5.70;;
13345;SDS011;6742;48.036;15.780;2024-01-30T06:15:00;12.87;;;6.53;;
13345;SDS011;6742;48.036;15.780;2024-01-30T06:17:27;8.47;;;6.37;;
13345;SDS011;6742;48.036;15.780;2024-01-30T06:19:54;11.57;;;7.23;;
13345;SDS011;6742;48.036;15.780;2024-01-30T06:22:23;10.50;;;6.90;;
13345;SDS011;6742;48.036;15.780;2024-01-30T06:24:50;13.90;;;7.00;;
13345;SDS011;6742;48.036;15.780;2024-01-30T06:27:17;11.43;;;6.67;;
13345;SDS011;6742;48.036;15.780;2024-01-30T06:29:44;12.60;;;6.90;;
13345;SDS011;6742;48.036;15.780;2024-01-30T06:32:10;13.57;;;6.60;;
13345;SDS011;6742;48.036;15.780;2024-01-30T06:34:37;12.67;;;6.80;;
13345;SDS011;6742;48.036;15.780;2024-01-30T06:37:05;10.40;;;6.50;;
13345;SDS011;6742;48.036;15.780;2024-01-30T06:39:33;11.30;;;6.50;;
13345;SDS011;6742;48.036;15.780;2024-01-30T06:42:00;11.30;;;6.13;;
13345;SDS011;6742;48.036;15.780;2024-01-30T06:44:27;10.77;;;6.70;;
13345;SDS011;6742;48.036;15.780;2024-01-30T06:46:54;8.10;;;5.80;;
13345;SDS011;6742;48.036;15.780;2024-01-30T06:49:21;11.03;;;5.50;;
13345;SDS011;6742;48.036;15.780;2024-01-30T06:51:48;8.60;;;4.77;;
13345;SDS011;6742;48.036;15.780;2024-01-30T06:54:15;7.57;;;5.20;;
13345;SDS011;6742;48.036;15.780;2024-01-30T06:56:43;6.93;;;4.93;;
13345;SDS011;6742;48.036;15.780;2024-01-30T06:59:10;7.13;;;5.07;;
13345;SDS011;6742;48.036;15.780;2024-01-30T07:01:37;11.30;;;5.53;;
13345;SDS011;6742;48.036;15.780;2024-01-30T07:04:04;9.03;;;5.47;;
13345;SDS011;6742;48.036;15.780;2024-01-30T07:06:30;8.40;;;5.10;;
13345;SDS011;6742;48.036;15.780;2024-01-30T07:08:57;7.40;;;5.57;;
13345;SDS011;6742;48.036;15.780;2024-01-30T07:11:24;7.80;;;5.57;;
13345;SDS011;6742;48.036;15.780;2024-01-30T07:13:54;18.87;;;9.27;;
13345;SDS011;6742;48.036;15.780;2024-01-30T07:16:21;19.83;;;9.70;;
13345;SDS011;6742;48.036;15.780;2024-01-30T07:18:48;21.57;;;8.73;;
13345;SDS011;6742;48.036;15.780;2024-01-30T07:21:15;23.63;;;8.13;;
13345;SDS011;6742;48.036;15.780;2024-01-30T07:23:42;27.33;;;14.77;;
13345;SDS011;6742;48.036;15.780;2024-01-30T07:26:09;27.13;;;13.23;;
13345;SDS011;6742;48.036;15.780;2024-01-30T07:28:36;17.20;;;9.83;;
13345;SDS011;6742;48.036;15.780;2024-01-30T07:31:05;12.13;;;8.00;;
13345;SDS011;6742;48.036;15.780;2024-01-30T07:33:31;24.13;;;8.17;;
13345;SDS011;6742;48.036;15.780;2024-01-30T07:35:58;16.83;;;7.93;;
13345;SDS011;6742;48.036;15.780;2024-01-30T07:38:25;9.73;;;6.57;;
13345;SDS011;6742;48.036;15.780;2024-01-30T07:40:52;11.17;;;6.90;;
13345;SDS011;6742;48.036;15.780;2024-01-30T07:43:19;13.63;;;6.47;;
13345;SDS011;6742;48.036;15.780;2024-01-30T07:45:46;18.73;;;7.43;;
13345;SDS011;6742;48.036;15.780;2024-01-30T07:48:14;16.70;;;6.80;;
13345;SDS011;6742;48.036;15.780;2024-01-30T07:50:41;14.23;;;7.53;;
13345;SDS011;6742;48.036;15.780;2024-01-30T07:53:08;19.17;;;10.83;;
13345;SDS011;6742;48.036;15.780;2024-01-30T07:55:50;16.00;;;8.70;;
13345;SDS011;6742;48.036;15.780;2024-01-30T07:58:17;12.83;;;6.80;;
13345;SDS011;6742;48.036;15.780;2024-01-30T08:00:44;16.10;;;7.83;;
13345;SDS011;6742;48.036;15.780;2024-01-30T08:03:11;20.77;;;7.20;;
13345;SDS011;6742;48.036;15.780;2024-01-30T08:05:39;12.03;;;7.07;;
13345;SDS011;6742;48.036;15.780;2024-01-30T08:08:06;11.97;;;6.47;;
13345;SDS011;6742;48.036;15.780;2024-01-30T08:10:33;11.97;;;6.60;;
13345;SDS011;6742;48.036;15.780;2024-01-30T08:13:00;12.20;;;6.63;;
13345;SDS011;6742;48.036;15.780;2024-01-30T08:15:27;10.03;;;5.63;;
13345;SDS011;6742;48.036;15.780;2024-01-30T08:17:54;10.27;;;5.80;;
13345;SDS011;6742;48.036;15.780;2024-01-30T08:20:23;9.50;;;6.40;;
13345;SDS011;6742;48.036;15.780;2024-01-30T08:22:51;10.30;;;7.03;;
13345;SDS011;6742;48.036;15.780;2024-01-30T08:25:18;13.37;;;7.40;;
13345;SDS011;6742;48.036;15.780;2024-01-30T08:27:45;15.13;;;8.63;;
13345;SDS011;6742;48.036;15.780;2024-01-30T08:30:12;12.87;;;8.20;;
13345;SDS011;6742;48.036;15.780;2024-01-30T08:32:39;13.53;;;9.33;;
13345;SDS011;6742;48.036;15.780;2024-01-30T08:35:06;12.43;;;8.93;;
13345;SDS011;6742;48.036;15.780;2024-01-30T08:37:34;13.37;;;9.30;;
13345;SDS011;6742;48.036;15.780;2024-01-30T08:40:02;13.10;;;8.03;;
13345;SDS011;6742;48.036;15.780;2024-01-30T08:42:29;9.97;;;6.63;;
13345;SDS011;6742;48.036;15.780;2024-01-30T08:44:56;8.97;;;6.80;;
13345;SDS011;6742;48.036;15.780;2024-01-30T08:47:23;8.80;;;6.33;;
13345;SDS011;6742;48.036;15.780;2024-01-30T08:49:51;9.00;;;6.40;;
13345;SDS011;6742;48.036;15.780;2024-01-30T08:52:18;8.23;;;6.43;;
13345;SDS011;6742;48.036;15.780;2024-01-30T08:54:46;8.77;;;6.23;;
13345;SDS011;6742;48.036;15.780;2024-01-30T08:57:14;10.87;;;6.53;;
13345;SDS011;6742;48.036;15.780;2024-01-30T08:59:44;9.53;;;6.33;;
13345;SDS011;6742;48.036;15.780;2024-01-30T09:02:11;9.50;;;6.63;;
13345;SDS011;6742;48.036;15.780;2024-01-30T09:04:41;9.43;;;6.67;;
13345;SDS011;6742;48.036;15.780;2024-01-30T09:07:08;8.70;;;6.77;;
13345;SDS011;6742;48.036;15.780;2024-01-30T09:09:37;8.43;;;6.97;;
13345;SDS011;6742;48.036;15.780;2024-01-30T09:12:08;9.87;;;6.67;;
13345;SDS011;6742;48.036;15.780;2024-01-30T09:14:38;9.83;;;6.70;;
13345;SDS011;6742;48.036;15.780;2024-01-30T09:17:06;9.03;;;6.50;;
13345;SDS011;6742;48.036;15.780;2024-01-30T09:19:33;9.73;;;7.47;;
13345;SDS011;6742;48.036;15.780;2024-01-30T09:22:00;9.17;;;6.53;;
13345;SDS011;6742;48.036;15.780;2024-01-30T09:24:27;12.30;;;7.30;;
13345;SDS011;6742;48.036;15.780;2024-01-30T09:26:54;11.87;;;7.30;;
13345;SDS011;6742;48.036;15.780;2024-01-30T09:29:21;6.80;;;5.97;;
13345;SDS011;6742;48.036;15.780;2024-01-30T09:31:49;6.97;;;6.00;;
13345;SDS011;6742;48.036;15.780;2024-01-30T09:34:16;9.83;;;6.40;;
13345;SDS011;6742;48.036;15.780;2024-01-30T09:36:43;9.80;;;6.90;;
13345;SDS011;6742;48.036;15.780;2024-01-30T09:39:10;9.17;;;6.57;;
13345;SDS011;6742;48.036;15.780;2024-01-30T09:41:48;9.60;;;7.03;;
13345;SDS011;6742;48.036;15.780;2024-01-30T09:44:16;9.23;;;6.50;;
13345;SDS011;6742;48.036;15.780;2024-01-30T09:46:43;9.67;;;7.20;;
13345;SDS011;6742;48.036;15.780;2024-01-30T09:49:14;8.37;;;7.13;;
13345;SDS011;6742;48.036;15.780;2024-01-30T09:51:43;9.90;;;7.23;;
13345;SDS011;6742;48.036;15.780;2024-01-30T09:54:12;8.77;;;7.03;;
13345;SDS011;6742;48.036;15.780;2024-01-30T09:56:40;9.73;;;7.27;;
13345;SDS011;6742;48.036;15.780;2024-01-30T09:59:07;13.83;;;8.50;;
13345;SDS011;6742;48.036;15.780;2024-01-30T10:01:36;12.87;;;8.47;;
13345;SDS011;6742;48.036;15.780;2024-01-30T10:04:04;13.80;;;9.63;;
13345;SDS011;6742;48.036;15.780;2024-01-30T10:06:33;13.13;;;9.17;;
13345;SDS011;6742;48.036;15.780;2024-01-30T10:09:01;17.30;;;10.17;;
13345;SDS011;6742;48.036;15.780;2024-01-30T10:11:28;14.23;;;9.73;;
13345;SDS011;6742;48.036;15.780;2024-01-30T10:13:55;13.07;;;9.27;;
13345;SDS011;6742;48.036;15.780;2024-01-30T10:16:22;11.67;;;8.70;;
13345;SDS011;6742;48.036;15.780;2024-01-30T10:18:49;13.80;;;9.40;;
13345;SDS011;6742;48.036;15.780;2024-01-30T10:21:16;13.43;;;8.93;;
13345;SDS011;6742;48.036;15.780;2024-01-30T10:23:44;16.13;;;9.60;;
13345;SDS011;6742;48.036;15.780;2024-01-30T10:26:11;13.40;;;9.83;;
13345;SDS011;6742;48.036;15.780;2024-01-30T10:28:38;12.50;;;8.93;;
13345;SDS011;6742;48.036;15.780;2024-01-30T10:31:05;14.10;;;9.87;;
13345;SDS011;6742;48.036;15.780;2024-01-30T10:33:32;13.77;;;9.40;;
13345;SDS011;6742;48.036;15.780;2024-01-30T10:36:00;15.37;;;10.67;;
13345;SDS011;6742;48.036;15.780;2024-01-30T10:38:28;15.37;;;11.10;;
13345;SDS011;6742;48.036;15.780;2024-01-30T10:40:58;14.33;;;10.93;;
13345;SDS011;6742;48.036;15.780;2024-01-30T10:43:28;14.97;;;9.50;;
13345;SDS011;6742;48.036;15.780;2024-01-30T10:45:57;11.83;;;9.10;;
13345;SDS011;6742;48.036;15.780;2024-01-30T10:48:33;12.80;;;8.70;;
13345;SDS011;6742;48.036;15.780;2024-01-30T10:51:05;12.47;;;9.07;;
13345;SDS011;6742;48.036;15.780;2024-01-30T10:53:32;12.47;;;9.27;;
13345;SDS011;6742;48.036;15.780;2024-01-30T10:56:02;11.90;;;9.87;;
13345;SDS011;6742;48.036;15.780;2024-01-30T10:58:30;12.17;;;9.60;;
13345;SDS011;6742;48.036;15.780;2024-01-30T11:00:57;11.73;;;9.70;;
13345;SDS011;6742;48.036;15.780;2024-01-30T11:03:25;11.17;;;9.70;;
13345;SDS011;6742;48.036;15.780;2024-01-30T11:05:52;12.03;;;9.73;;
13345;SDS011;6742;48.036;15.780;2024-01-30T11:08:23;12.40;;;9.37;;
13345;SDS011;6742;48.036;15.780;2024-01-30T11:10:54;11.67;;;9.23;;
13345;SDS011;6742;48.036;15.780;2024-01-30T11:13:23;12.37;;;9.77;;
13345;SDS011;6742;48.036;15.780;2024-01-30T11:15:54;13.30;;;10.07;;
13345;SDS011;6742;48.036;15.780;2024-01-30T11:18:24;11.93;;;9.20;;
13345;SDS011;6742;48.036;15.780;2024-01-30T11:20:51;13.63;;;9.40;;
13345;SDS011;6742;48.036;15.780;2024-01-30T11:23:18;11.77;;;9.00;;
13345;SDS011;6742;48.036;15.780;2024-01-30T11:25:48;13.13;;;9.20;;
13345;SDS011;6742;48.036;15.780;2024-01-30T11:28:15;13.93;;;9.57;;
13345;SDS011;6742;48.036;15.780;2024-01-30T11:30:44;13.67;;;9.03;;
13345;SDS011;6742;48.036;15.780;2024-01-30T11:33:13;11.43;;;8.57;;
13345;SDS011;6742;48.036;15.780;2024-01-30T11:35:41;11.73;;;9.30;;
13345;SDS011;6742;48.036;15.780;2024-01-30T11:38:09;14.23;;;9.87;;
13345;SDS011;6742;48.036;15.780;2024-01-30T11:40:37;10.70;;;9.33;;
13345;SDS011;6742;48.036;15.780;2024-01-30T11:43:06;13.60;;;9.77;;
13345;SDS011;6742;48.036;15.780;2024-01-30T11:45:34;13.93;;;9.93;;
13345;SDS011;6742;48.036;15.780;2024-01-30T11:48:03;14.57;;;9.73;;
13345;SDS011;6742;48.036;15.780;2024-01-30T11:50:32;13.37;;;10.13;;
13345;SDS011;6742;48.036;15.780;2024-01-30T11:53:00;15.70;;;10.17;;
13345;SDS011;6742;48.036;15.780;2024-01-30T11:55:28;13.50;;;9.87;;
13345;SDS011;6742;48.036;15.780;2024-01-30T11:57:56;13.43;;;10.13;;
13345;SDS011;6742;48.036;15.780;2024-01-30T12:00:23;12.50;;;9.70;;
13345;SDS011;6742;48.036;15.780;2024-01-30T12:02:51;14.73;;;9.87;;
13345;SDS011;6742;48.036;15.780;2024-01-30T12:05:22;13.83;;;9.97;;
13345;SDS011;6742;48.036;15.780;2024-01-30T12:07:50;12.63;;;10.90;;
13345;SDS011;6742;48.036;15.780;2024-01-30T12:10:17;14.67;;;10.47;;
13345;SDS011;6742;48.036;15.780;2024-01-30T12:12:46;13.03;;;10.27;;
13345;SDS011;6742;48.036;15.780;2024-01-30T12:15:13;12.07;;;10.03;;
13345;SDS011;6742;48.036;15.780;2024-01-30T12:17:41;14.07;;;10.60;;
13345;SDS011;6742;48.036;15.780;2024-01-30T12:20:09;14.27;;;10.17;;
13345;SDS011;6742;48.036;15.780;2024-01-30T12:22:38;14.57;;;10.50;;
13345;SDS011;6742;48.036;15.780;2024-01-30T12:25:07;12.73;;;10.53;;
13345;SDS011;6742;48.036;15.780;2024-01-30T12:27:35;13.77;;;10.63;;
13345;SDS011;6742;48.036;15.780;2024-01-30T12:30:04;14.73;;;11.30;;
13345;SDS011;6742;48.036;15.780;2024-01-30T12:32:34;13.43;;;10.80;;
13345;SDS011;6742;48.036;15.780;2024-01-30T12:35:01;14.77;;;11.10;;
13345;SDS011;6742;48.036;15.780;2024-01-30T12:37:29;12.47;;;10.63;;
13345;SDS011;6742;48.036;15.780;2024-01-30T12:39:57;13.67;;;11.17;;
13345;SDS011;6742;48.036;15.780;2024-01-30T12:42:26;14.27;;;10.63;;
13345;SDS011;6742;48.036;15.780;2024-01-30T12:44:53;15.17;;;10.37;;
13345;SDS011;6742;48.036;15.780;2024-01-30T12:47:21;12.83;;;10.80;;
13345;SDS011;6742;48.036;15.780;2024-01-30T12:49:48;14.13;;;11.33;;
13345;SDS011;6742;48.036;15.780;2024-01-30T12:52:18;14.47;;;11.60;;
13345;SDS011;6742;48.036;15.780;2024-01-30T12:54:46;15.30;;;11.80;;
13345;SDS011;6742;48.036;15.780;2024-01-30T12:57:14;15.83;;;11.27;;
13345;SDS011;6742;48.036;15.780;2024-01-30T12:59:42;14.77;;;10.43;;
13345;SDS011;6742;48.036;15.780;2024-01-30T13:02:11;15.37;;;11.50;;
13345;SDS011;6742;48.036;15.780;2024-01-30T13:04:39;13.07;;;10.37;;
13345;SDS011;6742;48.036;15.780;2024-01-30T13:07:06;13.43;;;10.60;;
13345;SDS011;6742;48.036;15.780;2024-01-30T13:09:33;14.00;;;11.17;;
13345;SDS011;6742;48.036;15.780;2024-01-30T13:12:00;14.90;;;11.07;;
13345;SDS011;6742;48.036;15.780;2024-01-30T13:14:28;13.40;;;11.13;;
13345;SDS011;6742;48.036;15.780;2024-01-30T13:16:55;14.63;;;11.10;;
13345;SDS011;6742;48.036;15.780;2024-01-30T13:19:22;13.73;;;11.30;;
13345;SDS011;6742;48.036;15.780;2024-01-30T13:21:49;14.37;;;11.10;;
13345;SDS011;6742;48.036;15.780;2024-01-30T13:24:16;12.90;;;10.83;;
13345;SDS011;6742;48.036;15.780;2024-01-30T13:26:46;13.37;;;11.03;;
13345;SDS011;6742;48.036;15.780;2024-01-30T13:29:13;15.37;;;11.67;;
13345;SDS011;6742;48.036;15.780;2024-01-30T13:31:41;14.10;;;11.87;;
13345;SDS011;6742;48.036;15.780;2024-01-30T13:34:09;16.87;;;12.33;;
13345;SDS011;6742;48.036;15.780;2024-01-30T13:36:36;15.93;;;12.20;;
13345;SDS011;6742;48.036;15.780;2024-01-30T13:39:03;16.77;;;12.60;;
13345;SDS011;6742;48.036;15.780;2024-01-30T13:41:34;16.40;;;13.47;;
13345;SDS011;6742;48.036;15.780;2024-01-30T13:44:01;16.77;;;13.13;;
13345;SDS011;6742;48.036;15.780;2024-01-30T13:46:28;15.83;;;11.97;;
13345;SDS011;6742;48.036;15.780;2024-01-30T13:48:57;17.33;;;12.87;;
13345;SDS011;6742;48.036;15.780;2024-01-30T13:51:24;15.60;;;12.83;;
13345;SDS011;6742;48.036;15.780;2024-01-30T13:53:51;14.53;;;12.60;;
13345;SDS011;6742;48.036;15.780;2024-01-30T13:56:18;16.70;;;12.57;;
13345;SDS011;6742;48.036;15.780;2024-01-30T13:58:45;17.50;;;13.47;;
13345;SDS011;6742;48.036;15.780;2024-01-30T14:01:14;18.37;;;14.37;;
13345;SDS011;6742;48.036;15.780;2024-01-30T14:03:40;18.00;;;14.07;;
13345;SDS011;6742;48.036;15.780;2024-01-30T14:06:09;18.90;;;13.33;;
13345;SDS011;6742;48.036;15.780;2024-01-30T14:08:39;19.53;;;14.00;;
13345;SDS011;6742;48.036;15.780;2024-01-30T14:11:06;18.27;;;14.07;;
13345;SDS011;6742;48.036;15.780;2024-01-30T14:13:33;18.77;;;13.70;;
13345;SDS011;6742;48.036;15.780;2024-01-30T14:16:00;17.57;;;13.60;;
13345;SDS011;6742;48.036;15.780;2024-01-30T14:18:27;16.30;;;12.50;;
13345;SDS011;6742;48.036;15.780;2024-01-30T14:20:54;18.97;;;13.57;;
13345;SDS011;6742;48.036;15.780;2024-01-30T14:23:23;16.67;;;12.53;;
13345;SDS011;6742;48.036;15.780;2024-01-30T14:25:50;20.60;;;13.47;;
13345;SDS011;6742;48.036;15.780;2024-01-30T14:28:17;20.73;;;14.63;;
13345;SDS011;6742;48.036;15.780;2024-01-30T14:30:44;18.20;;;14.90;;
13345;SDS011;6742;48.036;15.780;2024-01-30T14:33:12;16.47;;;12.87;;
13345;SDS011;6742;48.036;15.780;2024-01-30T14:35:39;16.73;;;13.70;;
13345;SDS011;6742;48.036;15.780;2024-01-30T14:38:06;19.77;;;15.50;;
13345;SDS011;6742;48.036;15.780;2024-01-30T14:40:34;17.60;;;13.90;;